Wheatcroft, Kentucky
Current Conditions -  °F | °C
As of 3:55 PM on Monday 22 Dec 2014 (Local Time) from K5M9 Reporting Station
Overcast Overcast  
Wind Chill: 50°   Ceiling: 1600
Heat Index: 50°   Visibility: 10mi
Dew Point: 47°   Wind: 14mph
Humidity: 90%   Direction: 140°SE
Pressure: 29.65"   Gusts: 21mph
Location:  37.49°N, 87.86°W
Report Text: K5M9 222155Z AUTO 14012G18KT 10SM OVC016 10/09 A2965 RMK AO2 T01010085
Loading
Personal Weather Stations






























Interactive Weather Map New forecast layout! Learn more

10-Day Weather Forecast

Advertisements
Track Severe Weather on mobile